Chicago, Illinois
Current Conditions -  °F | °C
As of 3:53 PM on Tuesday 21 Oct 2014 (Local Time) from KMDW Reporting Station
Overcast Overcast  
Wind Chill: 52°   Ceiling: 2600
Heat Index: 52°   Visibility: 10mi
Dew Point: 41°   Wind: 14mph
Humidity: 66%   Direction: 10°N
Pressure: 30.19"   Gusts: NA
Location:  41.88°N, 87.63°W
Report Text: KMDW 212053Z 01012KT 10SM OVC026 11/05 A3019 RMK AO2 SLP223 T01110050 51006
Loading
Personal Weather Stations






























Interactive Weather Map
Tropical Storm Tracking
New forecast layout! Learn more

10-Day Weather Forecast

Advertisements
Track Severe Weather on mobile